Weather reports worldwide

Advertisment
Cairngorm, United Kingdom (3065): temperature & dewpoint: 15.01.2020 23:00:00 - 21.01.2020 23:00:00 (GMT)Cairngorm, United Kingdom (3065): wind speed & gusts: 15.01.2020 23:00:00 - 21.01.2020 23:00:00 (GMT)Cairngorm, United Kingdom (3065): wind direction: 15.01.2020 23:00:00 - 21.01.2020 23:00:00 (GMT)
Date & Time tt [°C] td [°C] ff [km/h] ff [kn] fx [km/h] fx [kn] dd
21.01.2020 23:00:00 3,7 3,6 67 36 87 47 WNW
21.01.2020 22:00:00 3,7 3,7 72 39 83 45 WNW
21.01.2020 21:00:00 3,7 3,7 67 36 81 44 WNW
21.01.2020 20:00:00 3,3 3,3 70 38 81 44 WNW
21.01.2020 19:00:00 3,0 3,0 63 34 74 40 W
21.01.2020 18:00:00 2,8 2,8 61 33 91 49 W
21.01.2020 17:00:00 3,0 2,9 70 38 91 49 W
21.01.2020 16:00:00 3,1 3,1 72 39 93 50 W
21.01.2020 15:00:00 3,2 3,1 70 38 91 49 W
21.01.2020 14:00:00 3,3 3,2 72 39 96 52 W
21.01.2020 13:00:00 3,2 3,2 67 36 89 48 W
21.01.2020 12:00:00 3,3 3,3 63 34 87 47 W
21.01.2020 11:00:00 3,2 3,2 63 34 85 46 W
21.01.2020 10:00:00 3,2 3,1 63 34 83 45 W
21.01.2020 09:00:00 3,1 3,1 52 28 72 39 W
21.01.2020 08:00:00 2,7 2,7 52 28 63 34 W
21.01.2020 07:00:00 2,8 2,8 52 28 67 36 W
21.01.2020 06:00:00 2,6 2,6 57 31 85 46 W
21.01.2020 05:00:00 2,5 2,4 78 42 100 54 W
21.01.2020 04:00:00 2,4 2,4 89 48 115 62 W
21.01.2020 03:00:00 2,8 2,8 83 45 119 64 W
21.01.2020 02:00:00 2,7 2,7 89 48 128 69 W
21.01.2020 01:00:00 2,3 2,3 93 50 137 74 W
21.01.2020 00:00:00 2,1 2,1 106 57 146 79 W
20.01.2020 23:00:00 1,6 1,6 100 54 137 74 W
20.01.2020 22:00:00 1,8 1,7 85 46 119 64 W
20.01.2020 21:00:00 1,5 1,5 93 50 131 71 WSW
20.01.2020 20:00:00 3,1 -0,1 68 37 117 63 WSW
20.01.2020 19:00:00 1,4 -2,9 70 38 117 63 W
20.01.2020 18:00:00 3,1 -4,5 78 42 111 60 W
20.01.2020 17:00:00 3,6 -3,9 63 34 117 63 W
20.01.2020 16:00:00 4,2 -4,6 87 47 128 69 W
20.01.2020 15:00:00 5,4 -3,8 91 49 126 68 W
20.01.2020 14:00:00 5,4 -5,9 81 44 141 76 WSW
20.01.2020 13:00:00 7,6 -7,9 100 54 135 73 WSW
20.01.2020 12:00:00 8,6 -8,3 85 46 133 72 W
20.01.2020 11:00:00 7,2 -7,2 102 55 135 73 W
20.01.2020 10:00:00 5,6 -5,1 72 39 128 69 W
20.01.2020 09:00:00 6,6 -3,5 91 49 128 69 W
20.01.2020 08:00:00 5,0 -2,4 83 45 117 63 W
20.01.2020 07:00:00 2,7 2,2 80 43 111 60 WSW
20.01.2020 06:00:00 2,2 2,0 76 41 113 61 W
20.01.2020 05:00:00 4,2 4,0 91 49 120 65 W
20.01.2020 04:00:00 5,6 5,1 83 45 120 65 W
20.01.2020 03:00:00 5,3 4,7 96 52 120 65 W
20.01.2020 02:00:00 2,3 0,7 83 45 122 66 W
20.01.2020 01:00:00 5,4 -1,3 91 49 133 72 W
20.01.2020 00:00:00 1,7 -1,6 83 45 133 72 W
19.01.2020 23:00:00 4,2 -2,5 89 48 119 64 W
19.01.2020 22:00:00 6,7 -2,9 87 47 130 70 W
19.01.2020 21:00:00 5,1 -2,7 100 54 131 71 W
19.01.2020 20:00:00 5,2 -2,6 94 51 128 69 W
19.01.2020 19:00:00 4,1 -1,2 93 50 141 76 W
19.01.2020 18:00:00 2,8 -3,2 104 56 146 79 WSW
19.01.2020 17:00:00 2,7 -2,4 98 53 144 78 WSW
19.01.2020 16:00:00 0,2 -2,6 98 53 133 72 WSW
19.01.2020 15:00:00 4,0 1,8 78 42 107 58 WSW
19.01.2020 14:00:00 2,0 0,9 87 47 107 58 WSW
19.01.2020 13:00:00 2,3 1,9 55 30 100 54 SW
19.01.2020 12:00:00 -1,9 -2,1 21 11 - - SW
19.01.2020 11:00:00 -0,1 -0,1 16 9 70 38 WSW
19.01.2020 10:00:00 -2,4 -2,4 - - - - -
19.01.2020 09:00:00 -2,8 -2,9 - - 54 29 -
19.01.2020 08:00:00 -2,8 -2,9 35 19 74 40 W
19.01.2020 07:00:00 -3,4 -3,5 46 25 76 41 W
19.01.2020 06:00:00 -4,6 -4,8 39 21 70 38 W
19.01.2020 05:00:00 -4,5 -4,7 - - - - -
19.01.2020 04:00:00 -4,3 -4,4 - - - - -
19.01.2020 03:00:00 -4,5 -4,7 - - - - -
19.01.2020 02:00:00 -5,0 -5,2 - - - - -
19.01.2020 01:00:00 -4,8 -5,0 - - 59 32 -
19.01.2020 00:00:00 -4,9 -5,2 - - - - -
18.01.2020 23:00:00 -4,7 -5,0 - - - - -
18.01.2020 22:00:00 -4,5 -4,8 - - - - -
18.01.2020 21:00:00 -4,2 -4,5 - - - - -
18.01.2020 20:00:00 -4,5 -4,8 - - - - -
18.01.2020 19:00:00 -4,4 -4,6 - - - - -
18.01.2020 18:00:00 -4,6 -4,9 - - - - -
18.01.2020 17:00:00 -4,5 -4,8 - - - - -
18.01.2020 16:00:00 -4,2 -4,5 - - - - -
18.01.2020 15:00:00 -4,3 -4,6 - - - - -
18.01.2020 14:00:00 -3,9 -4,2 - - - - -
18.01.2020 13:00:00 -4,9 -5,2 - - - - -
18.01.2020 12:00:00 -4,9 -5,2 - - - - -
18.01.2020 11:00:00 -4,7 -5,1 - - - - -
18.01.2020 10:00:00 -4,9 -5,3 - - - - -
18.01.2020 09:00:00 -4,8 -5,2 - - - - -
18.01.2020 08:00:00 -4,5 -4,8 - - - - -
18.01.2020 07:00:00 -4,3 -4,6 - - - - -
18.01.2020 06:00:00 -4,8 -5,2 - - - - -
18.01.2020 05:00:00 -5,0 -5,4 - - - - -
18.01.2020 04:00:00 -5,1 -5,5 - - - - -
18.01.2020 03:00:00 -5,2 -5,6 - - - - -
18.01.2020 02:00:00 -5,0 -5,4 - - 104 56 -
18.01.2020 01:00:00 -4,2 -4,5 74 40 91 49 W
18.01.2020 00:00:00 -4,8 -5,2 80 43 115 62 W
17.01.2020 23:00:00 -4,8 -5,1 94 51 120 65 W
17.01.2020 22:00:00 -4,7 -5,1 85 46 109 59 W
17.01.2020 21:00:00 -4,5 -4,7 74 40 109 59 W
17.01.2020 20:00:00 -4,0 -4,2 87 47 119 64 W
17.01.2020 19:00:00 -4,4 -4,6 91 49 120 65 W
17.01.2020 18:00:00 -3,5 -3,6 80 43 119 64 W
17.01.2020 17:00:00 -3,6 -3,7 83 45 102 55 W
17.01.2020 16:00:00 -3,5 -3,6 78 42 96 52 W
17.01.2020 15:00:00 -3,7 -3,8 74 40 100 54 W
17.01.2020 14:00:00 -3,6 -3,7 67 36 89 48 WSW
17.01.2020 13:00:00 -3,2 -3,2 63 34 91 49 WSW
17.01.2020 12:00:00 -3,3 -3,3 74 40 106 57 SW
17.01.2020 11:00:00 -3,6 -3,7 80 43 102 55 SW
17.01.2020 10:00:00 -4,1 -4,2 76 41 107 58 SW
17.01.2020 09:00:00 -4,4 -4,5 72 39 98 53 SW
17.01.2020 08:00:00 -3,9 -4,0 65 35 104 56 SW
17.01.2020 07:00:00 -4,0 -4,1 68 37 104 56 SW
17.01.2020 06:00:00 -3,9 -4,0 68 37 104 56 SW
17.01.2020 05:00:00 -4,0 -4,1 65 35 104 56 SW
17.01.2020 04:00:00 -3,9 -4,0 72 39 107 58 SW
17.01.2020 03:00:00 -3,3 -3,3 80 43 117 63 SW
17.01.2020 02:00:00 -3,1 -3,1 68 37 89 48 SW
17.01.2020 01:00:00 -2,5 -2,6 65 35 106 57 SW
17.01.2020 00:00:00 -1,9 -2,0 76 41 100 54 SW
16.01.2020 23:00:00 -2,1 -2,2 78 42 109 59 SW
16.01.2020 22:00:00 -2,3 -2,3 81 44 120 65 SW
16.01.2020 21:00:00 -1,7 -1,7 76 41 104 56 SW
16.01.2020 20:00:00 0,2 0,0 67 36 109 59 SSW
16.01.2020 19:00:00 0,5 0,4 78 42 119 64 S
16.01.2020 18:00:00 -0,3 -0,4 98 53 130 70 SSE
16.01.2020 17:00:00 -1,6 -1,7 107 58 133 72 SSE
16.01.2020 16:00:00 -1,6 -1,7 94 51 137 74 SE
16.01.2020 15:00:00 -1,1 -1,2 111 60 144 78 SSE
16.01.2020 14:00:00 -1,0 -1,2 102 55 141 76 SSE
16.01.2020 13:00:00 -0,6 -0,7 122 66 154 83 S
16.01.2020 12:00:00 -0,4 -0,5 91 49 131 71 S
16.01.2020 11:00:00 -0,6 -0,7 109 59 126 68 S
16.01.2020 10:00:00 -1,2 -1,3 102 55 130 70 S
16.01.2020 09:00:00 -0,6 -0,8 104 56 128 69 S
16.01.2020 08:00:00 -1,2 -1,3 109 59 135 73 SSW
16.01.2020 07:00:00 -1,5 -1,7 93 50 111 60 S
16.01.2020 06:00:00 -2,3 -2,4 85 46 133 72 SW
16.01.2020 05:00:00 -3,2 -3,3 83 45 135 73 SW
16.01.2020 04:00:00 -3,8 -4,0 85 46 117 63 SW
16.01.2020 03:00:00 -3,4 -3,6 72 39 100 54 SW
16.01.2020 02:00:00 -3,4 -3,6 74 40 119 64 SW
16.01.2020 01:00:00 -3,1 -3,2 76 41 113 61 SW
16.01.2020 00:00:00 -3,3 -3,4 78 42 135 73 WSW
15.01.2020 23:00:00 -3,3 -3,4 78 42 128 69 WSW

tt = temperature
td = dewpoint
ff = wind speed
fx = gusts
dd = wind direction

Next stations